createdAt,value
2018-05-06T00:00:46.038Z,87.00
2018-05-06T00:03:13.545Z,86.90
2018-05-06T00:05:41.085Z,86.90
2018-05-06T00:08:08.665Z,86.90
2018-05-06T00:10:36.207Z,86.80
2018-05-06T00:13:03.737Z,86.90
2018-05-06T00:15:31.284Z,86.80
2018-05-06T00:17:58.802Z,86.80
2018-05-06T00:20:26.346Z,86.90
2018-05-06T00:22:54.594Z,86.90
2018-05-06T00:25:22.141Z,86.90
2018-05-06T00:27:49.649Z,87.10
2018-05-06T00:30:17.374Z,87.10
2018-05-06T00:32:44.893Z,87.10
2018-05-06T00:35:12.465Z,87.10
2018-05-06T00:37:39.973Z,87.40
2018-05-06T00:40:07.509Z,87.50
2018-05-06T00:42:35.013Z,87.60
2018-05-06T00:45:02.565Z,87.40
2018-05-06T00:47:30.465Z,87.10
2018-05-06T00:49:58.025Z,87.10
2018-05-06T00:52:25.541Z,87.10
2018-05-06T00:54:53.482Z,87.20
2018-05-06T00:57:21.200Z,87.10
2018-05-06T00:59:48.744Z,87.20
2018-05-06T01:02:16.307Z,87.10
2018-05-06T01:04:43.966Z,87.10
2018-05-06T01:07:11.527Z,87.10
2018-05-06T01:09:39.050Z,87.10
2018-05-06T01:12:06.604Z,87.20
2018-05-06T01:14:34.521Z,87.40
2018-05-06T01:17:02.065Z,87.40
2018-05-06T01:23:00.409Z,87.20
2018-05-06T01:25:27.973Z,87.30
2018-05-06T01:27:55.497Z,87.30
2018-05-06T01:30:23.039Z,87.40
2018-05-06T01:32:50.548Z,87.40
2018-05-06T01:35:18.131Z,87.50
2018-05-06T01:37:45.651Z,87.50
2018-05-06T01:40:13.721Z,87.60
2018-05-06T01:42:42.174Z,87.70
2018-05-06T01:45:09.696Z,87.70
2018-05-06T01:47:37.228Z,87.70
2018-05-06T01:50:04.737Z,87.80
2018-05-06T01:52:32.566Z,87.80
2018-05-06T01:55:00.078Z,87.60
2018-05-06T01:57:28.035Z,87.50
2018-05-06T01:59:56.263Z,87.50
2018-05-06T02:02:23.801Z,87.50
2018-05-06T02:04:55.014Z,87.60
2018-05-06T02:07:23.022Z,88.00
2018-05-06T02:10:42.213Z,88.30
2018-05-06T02:13:09.740Z,88.20
2018-05-06T02:15:57.957Z,88.10
2018-05-06T02:22:37.445Z,88.00
2018-05-06T02:25:04.950Z,88.00
2018-05-06T02:27:32.643Z,87.80
2018-05-06T02:30:00.164Z,87.80
2018-05-06T02:32:27.709Z,88.30
2018-05-06T02:34:55.225Z,88.00
2018-05-06T02:37:22.795Z,87.80
2018-05-06T02:39:50.443Z,88.00
2018-05-06T02:42:18.305Z,87.70
2018-05-06T02:44:45.830Z,87.80
2018-05-06T02:47:13.825Z,87.60
2018-05-06T02:49:41.345Z,87.60
2018-05-06T02:52:09.342Z,87.70
2018-05-06T02:54:36.870Z,87.70
2018-05-06T02:57:04.860Z,87.60
2018-05-06T02:59:32.401Z,87.60
2018-05-06T03:01:59.935Z,87.50
2018-05-06T03:04:27.446Z,87.40
2018-05-06T03:06:54.976Z,87.40
2018-05-06T03:09:22.513Z,87.60
2018-05-06T03:11:50.047Z,87.60
2018-05-06T03:14:17.551Z,87.60
2018-05-06T03:16:45.096Z,87.50
2018-05-06T03:19:12.648Z,87.50
2018-05-06T03:21:40.197Z,87.60
2018-05-06T03:24:07.717Z,87.50
2018-05-06T03:26:35.477Z,87.60
2018-05-06T03:29:03.005Z,87.50
2018-05-06T03:31:30.659Z,87.30
2018-05-06T03:33:58.162Z,87.20
2018-05-06T03:36:25.784Z,87.30
2018-05-06T03:38:53.380Z,87.20
2018-05-06T03:41:21.292Z,87.30
2018-05-06T03:43:48.836Z,87.30
2018-05-06T03:46:16.403Z,87.40
2018-05-06T03:48:43.962Z,87.30
2018-05-06T03:51:11.463Z,87.50
2018-05-06T03:53:39.019Z,87.50
2018-05-06T03:59:29.434Z,87.30
2018-05-06T04:05:04.650Z,87.20
2018-05-06T04:07:32.210Z,87.20
2018-05-06T04:09:59.724Z,87.20
2018-05-06T04:12:27.241Z,87.10
2018-05-06T04:14:54.786Z,87.10
2018-05-06T04:17:22.314Z,87.00
2018-05-06T04:19:49.974Z,87.00
2018-05-06T04:22:17.501Z,87.00
2018-05-06T04:24:45.056Z,87.00
2018-05-06T04:27:12.593Z,87.10
2018-05-06T04:29:40.213Z,86.80
2018-05-06T04:32:07.735Z,86.70
2018-05-06T04:34:35.269Z,86.70
2018-05-06T04:37:02.896Z,86.90
2018-05-06T04:39:30.629Z,87.00
2018-05-06T04:41:58.142Z,86.80
2018-05-06T04:44:26.085Z,86.90
2018-05-06T04:46:53.716Z,86.90
2018-05-06T04:49:21.471Z,87.40
2018-05-06T04:51:48.997Z,88.00
2018-05-06T04:54:16.577Z,88.10
2018-05-06T04:56:44.085Z,87.80
2018-05-06T04:59:11.625Z,88.00
2018-05-06T05:01:39.353Z,88.10
2018-05-06T05:04:06.901Z,88.10
2018-05-06T05:06:34.422Z,88.10
2018-05-06T05:09:02.127Z,88.10
2018-05-06T05:11:29.662Z,87.80
2018-05-06T05:13:57.213Z,87.80
2018-05-06T05:16:24.899Z,87.60
2018-05-06T05:18:52.459Z,87.40
2018-05-06T05:21:20.013Z,87.30
2018-05-06T05:23:47.545Z,87.30
2018-05-06T05:26:15.098Z,87.40
2018-05-06T05:28:42.605Z,87.10
2018-05-06T05:31:10.269Z,86.80
2018-05-06T05:33:37.810Z,86.80
2018-05-06T05:36:05.369Z,86.60
2018-05-06T05:38:33.292Z,86.60
2018-05-06T05:41:00.848Z,86.50
2018-05-06T05:43:28.361Z,86.50
2018-05-06T05:45:55.907Z,86.20
2018-05-06T05:48:23.437Z,86.00
2018-05-06T05:50:51.106Z,85.60
2018-05-06T05:53:18.621Z,85.10
2018-05-06T05:55:46.619Z,85.10
2018-05-06T05:58:14.277Z,85.10
2018-05-06T06:00:41.929Z,85.20
2018-05-06T06:03:09.450Z,84.70
2018-05-06T06:05:37.389Z,84.80
2018-05-06T06:08:04.897Z,84.80
2018-05-06T06:10:32.437Z,84.70
2018-05-06T06:13:00.357Z,84.20
2018-05-06T06:15:27.929Z,84.80
2018-05-06T06:17:55.452Z,84.70
2018-05-06T06:20:23.085Z,84.50
2018-05-06T06:22:50.604Z,84.20
2018-05-06T06:25:18.154Z,84.00
2018-05-06T06:27:45.661Z,83.70
2018-05-06T06:30:13.209Z,83.90
2018-05-06T06:32:40.888Z,83.10
2018-05-06T06:35:08.751Z,83.00
2018-05-06T06:37:36.557Z,82.90
2018-05-06T06:40:04.482Z,82.50
2018-05-06T06:42:32.002Z,82.50
2018-05-06T06:44:59.641Z,81.00
2018-05-06T06:47:27.543Z,81.50
2018-05-06T06:49:55.097Z,81.60
2018-05-06T06:52:22.775Z,81.60
2018-05-06T06:54:50.320Z,81.70
2018-05-06T06:57:17.821Z,81.50
2018-05-06T06:59:45.377Z,81.10
2018-05-06T07:02:13.004Z,80.10
2018-05-06T07:04:40.522Z,78.80
2018-05-06T07:07:08.062Z,78.80
2018-05-06T07:09:35.844Z,78.70
2018-05-06T07:12:03.388Z,78.60
2018-05-06T07:14:30.947Z,78.50
2018-05-06T07:16:58.885Z,75.90
2018-05-06T07:19:26.396Z,75.20
2018-05-06T07:21:54.057Z,73.30
2018-05-06T07:24:21.581Z,71.70
2018-05-06T07:26:49.138Z,70.50
2018-05-06T07:29:16.711Z,70.00
2018-05-06T07:31:44.732Z,66.60
2018-05-06T07:34:12.237Z,66.60
2018-05-06T07:36:39.769Z,65.40
2018-05-06T07:39:07.289Z,65.90
2018-05-06T07:41:34.964Z,66.50
2018-05-06T07:44:02.471Z,66.50
2018-05-06T07:46:30.234Z,63.50
2018-05-06T07:48:57.787Z,62.80
2018-05-06T07:51:25.316Z,64.40
2018-05-06T07:53:53.022Z,64.40
2018-05-06T07:56:20.581Z,64.40
2018-05-06T07:58:48.178Z,62.70
2018-05-06T08:01:15.757Z,62.50
2018-05-06T08:03:43.264Z,62.30
2018-05-06T08:06:10.808Z,61.30
2018-05-06T08:08:38.309Z,59.80
2018-05-06T08:11:05.857Z,59.80
2018-05-06T08:13:33.369Z,59.30
2018-05-06T08:16:01.119Z,58.30
2018-05-06T08:18:28.975Z,58.90
2018-05-06T08:20:56.578Z,59.50
2018-05-06T08:23:24.084Z,58.10
2018-05-06T08:25:51.736Z,57.90
2018-05-06T08:28:19.818Z,57.90
2018-05-06T08:30:47.339Z,60.50
2018-05-06T08:33:15.337Z,63.00
2018-05-06T08:35:42.854Z,63.00
2018-05-06T08:38:10.795Z,61.80
2018-05-06T08:40:38.296Z,61.80
2018-05-06T08:43:05.962Z,61.80
2018-05-06T08:45:33.474Z,61.00
2018-05-06T08:48:01.010Z,61.10
2018-05-06T08:50:28.519Z,61.30
2018-05-06T08:52:56.091Z,60.10
2018-05-06T08:55:23.651Z,58.50
2018-05-06T08:57:51.346Z,56.40
2018-05-06T09:00:18.856Z,57.40
2018-05-06T09:02:46.386Z,57.20
2018-05-06T09:05:13.893Z,56.90
2018-05-06T09:07:41.543Z,59.10
2018-05-06T09:10:09.199Z,58.60
2018-05-06T09:12:36.828Z,57.70
2018-05-06T09:15:04.501Z,57.40
2018-05-06T09:17:32.038Z,56.20
2018-05-06T09:19:59.546Z,57.40
2018-05-06T09:22:27.269Z,57.60
2018-05-06T09:24:54.782Z,57.80
2018-05-06T09:27:22.304Z,58.70
2018-05-06T09:29:49.848Z,59.00
2018-05-06T09:32:17.714Z,58.30
2018-05-06T09:34:45.253Z,58.50
2018-05-06T09:37:12.797Z,58.50
2018-05-06T09:39:40.299Z,57.50
2018-05-06T09:42:07.937Z,55.50
2018-05-06T09:44:35.595Z,55.80
2018-05-06T09:47:03.137Z,56.20
2018-05-06T09:49:30.632Z,56.20
2018-05-06T09:51:58.379Z,57.00
2018-05-06T09:54:25.886Z,55.80
2018-05-06T09:56:53.889Z,55.60
2018-05-06T09:59:21.388Z,55.60
2018-05-06T10:01:48.913Z,54.50
2018-05-06T10:04:16.456Z,54.90
2018-05-06T10:06:43.956Z,56.10
2018-05-06T10:09:11.485Z,56.20
2018-05-06T10:11:38.987Z,54.80
2018-05-06T10:14:06.670Z,55.00
2018-05-06T10:16:34.339Z,54.70
2018-05-06T10:19:01.881Z,55.30
2018-05-06T10:21:29.392Z,53.90
2018-05-06T10:23:57.011Z,53.00
2018-05-06T10:26:24.513Z,52.50
2018-05-06T10:28:52.047Z,51.60
2018-05-06T10:31:19.588Z,54.00
2018-05-06T10:33:47.113Z,55.30
2018-05-06T10:36:14.612Z,54.70
2018-05-06T10:38:42.229Z,53.50
2018-05-06T10:41:09.900Z,52.70
2018-05-06T10:43:37.433Z,54.00
2018-05-06T10:46:04.953Z,54.00
2018-05-06T10:48:32.504Z,54.20
2018-05-06T10:51:00.137Z,55.10
2018-05-06T10:53:27.813Z,55.60
2018-05-06T10:55:55.330Z,56.20
2018-05-06T10:58:22.880Z,56.60
2018-05-06T11:00:50.562Z,58.10
2018-05-06T11:03:18.103Z,58.20
2018-05-06T11:05:45.656Z,59.90
2018-05-06T11:08:13.190Z,60.30
2018-05-06T11:10:41.104Z,61.40
2018-05-06T11:13:08.852Z,61.40
2018-05-06T11:15:36.393Z,61.30
2018-05-06T11:18:03.949Z,61.90
2018-05-06T11:20:31.608Z,61.00
2018-05-06T11:22:59.233Z,61.00
2018-05-06T11:25:26.937Z,60.90
2018-05-06T11:27:54.599Z,61.20
2018-05-06T11:30:22.251Z,61.40
2018-05-06T11:32:49.756Z,62.00
2018-05-06T11:35:17.281Z,61.80
2018-05-06T11:37:44.833Z,61.80
2018-05-06T11:40:12.532Z,61.60
2018-05-06T11:42:40.225Z,61.50
2018-05-06T11:45:07.777Z,61.20
2018-05-06T11:47:35.450Z,60.90
2018-05-06T11:50:03.127Z,61.60
2018-05-06T11:52:30.641Z,61.60
2018-05-06T11:54:58.665Z,61.30
2018-05-06T11:57:26.160Z,61.30
2018-05-06T11:59:54.091Z,61.00
2018-05-06T12:02:21.629Z,61.00
2018-05-06T12:04:49.164Z,61.30
2018-05-06T12:07:16.672Z,60.80
2018-05-06T12:09:44.197Z,62.10
2018-05-06T12:12:11.716Z,60.50
2018-05-06T12:14:39.296Z,60.50
2018-05-06T12:17:06.973Z,60.40
2018-05-06T12:19:34.514Z,60.30
2018-05-06T12:22:02.025Z,61.00
2018-05-06T12:24:29.579Z,60.30
2018-05-06T12:26:57.086Z,60.60
2018-05-06T12:29:24.615Z,60.80
2018-05-06T12:31:52.120Z,61.10
2018-05-06T12:34:19.751Z,61.10
2018-05-06T12:36:47.393Z,60.50
2018-05-06T12:39:14.936Z,60.00
2018-05-06T12:41:42.852Z,60.20
2018-05-06T12:44:10.361Z,60.10
2018-05-06T12:46:37.900Z,61.10
2018-05-06T12:49:05.418Z,61.00
2018-05-06T12:51:33.063Z,60.40
2018-05-06T12:54:00.603Z,60.60
2018-05-06T12:56:28.179Z,60.20
2018-05-06T12:58:55.822Z,60.30
2018-05-06T13:01:23.468Z,59.90
2018-05-06T13:03:51.148Z,59.80
2018-05-06T13:06:18.711Z,60.00
2018-05-06T13:08:46.228Z,60.30
2018-05-06T13:11:13.786Z,60.50
2018-05-06T13:13:41.326Z,60.10
2018-05-06T13:16:08.870Z,60.20
2018-05-06T13:18:36.372Z,60.80
2018-05-06T13:21:03.934Z,60.10
2018-05-06T13:23:31.439Z,60.20
2018-05-06T13:25:58.981Z,59.50
2018-05-06T13:28:26.502Z,60.00
2018-05-06T13:30:54.069Z,59.90
2018-05-06T13:33:21.580Z,60.20
2018-05-06T13:35:49.116Z,60.30
2018-05-06T13:38:16.849Z,59.80
2018-05-06T13:40:44.388Z,60.40
2018-05-06T13:43:11.898Z,59.90
2018-05-06T13:45:39.832Z,59.90
2018-05-06T13:48:07.348Z,59.90
2018-05-06T13:50:34.883Z,60.00
2018-05-06T13:53:02.785Z,60.10
2018-05-06T13:55:30.367Z,60.10
2018-05-06T13:57:57.972Z,60.00
2018-05-06T14:00:25.501Z,60.20
2018-05-06T14:02:53.004Z,59.80
2018-05-06T14:05:20.766Z,60.20
2018-05-06T14:07:48.415Z,60.20
2018-05-06T14:10:15.921Z,60.00
2018-05-06T14:12:43.548Z,59.40
2018-05-06T14:15:11.062Z,59.20
2018-05-06T14:17:38.656Z,59.20
2018-05-06T14:20:06.157Z,59.30
2018-05-06T14:22:34.141Z,59.80
2018-05-06T14:25:01.646Z,59.80
2018-05-06T14:27:29.172Z,59.50
2018-05-06T14:29:56.709Z,59.40
2018-05-06T14:32:24.265Z,59.90
2018-05-06T14:34:52.305Z,59.10
2018-05-06T14:37:20.125Z,59.10
2018-05-06T14:39:47.658Z,59.40
2018-05-06T14:42:15.213Z,59.80
2018-05-06T14:44:42.744Z,59.30
2018-05-06T14:47:22.231Z,59.30
2018-05-06T14:49:49.741Z,59.50
2018-05-06T14:52:17.872Z,59.10
2018-05-06T14:54:45.409Z,59.10
2018-05-06T14:57:13.067Z,58.90
2018-05-06T14:59:40.566Z,58.60
2018-05-06T15:02:08.124Z,59.00
2018-05-06T15:04:35.661Z,59.30
2018-05-06T15:07:03.320Z,58.40
2018-05-06T15:09:30.826Z,58.70
2018-05-06T15:11:58.337Z,58.40
2018-05-06T15:14:35.732Z,58.60
2018-05-06T15:17:03.645Z,58.60
2018-05-06T15:19:31.212Z,58.60
2018-05-06T15:21:59.069Z,58.60
2018-05-06T15:24:26.618Z,58.50
2018-05-06T15:26:54.157Z,58.30
2018-05-06T15:29:21.717Z,58.10
2018-05-06T15:31:49.229Z,58.20
2018-05-06T15:34:16.774Z,58.10
2018-05-06T15:36:44.294Z,57.80
2018-05-06T15:39:11.881Z,57.50
2018-05-06T15:41:39.400Z,57.50
2018-05-06T15:44:07.008Z,57.40
2018-05-06T15:46:34.521Z,56.90
2018-05-06T15:49:02.073Z,57.20
2018-05-06T15:51:29.589Z,56.90
2018-05-06T15:53:57.131Z,56.50
2018-05-06T15:56:24.699Z,57.20
2018-05-06T15:58:52.251Z,56.20
2018-05-06T16:01:19.772Z,55.90
2018-05-06T16:03:59.081Z,56.10
2018-05-06T16:06:26.614Z,55.90
2018-05-06T16:08:54.629Z,55.70
2018-05-06T16:11:22.149Z,55.70
2018-05-06T16:13:49.753Z,55.70
2018-05-06T16:16:17.265Z,56.10
2018-05-06T16:18:45.193Z,55.80
2018-05-06T16:21:12.711Z,55.80
2018-05-06T16:23:40.257Z,56.10
2018-05-06T16:26:07.810Z,56.00
2018-05-06T16:28:35.474Z,56.00
2018-05-06T16:31:03.018Z,56.10
2018-05-06T16:33:30.921Z,55.90
2018-05-06T16:35:58.454Z,55.90
2018-05-06T16:38:25.968Z,55.90
2018-05-06T16:40:53.517Z,56.10
2018-05-06T16:43:21.027Z,56.00
2018-05-06T16:45:48.584Z,56.10
2018-05-06T16:48:16.136Z,56.20
2018-05-06T16:50:44.049Z,55.70
2018-05-06T16:53:11.562Z,55.70
2018-05-06T16:55:39.234Z,56.10
2018-05-06T16:58:06.797Z,55.20
2018-05-06T17:00:34.320Z,55.10
2018-05-06T17:03:01.840Z,55.20
2018-05-06T17:05:29.370Z,55.10
2018-05-06T17:07:56.894Z,55.30
2018-05-06T17:10:24.479Z,55.20
2018-05-06T17:12:52.154Z,55.60
2018-05-06T17:15:19.673Z,55.20
2018-05-06T17:17:47.232Z,55.60
2018-05-06T17:20:15.298Z,55.70
2018-05-06T17:22:42.964Z,56.10
2018-05-06T17:25:10.461Z,56.20
2018-05-06T17:27:38.026Z,55.90
2018-05-06T17:30:05.552Z,56.40
2018-05-06T17:32:33.109Z,56.60
2018-05-06T17:35:00.638Z,57.00
2018-05-06T17:37:28.190Z,56.60
2018-05-06T17:39:55.704Z,56.20
2018-05-06T17:42:23.298Z,56.00
2018-05-06T17:44:50.817Z,56.40
2018-05-06T17:47:18.365Z,56.50
2018-05-06T17:49:45.889Z,56.60
2018-05-06T17:52:13.422Z,57.20
2018-05-06T17:54:40.944Z,57.50
2018-05-06T17:57:08.877Z,58.40
2018-05-06T17:59:36.387Z,58.50
2018-05-06T18:02:03.919Z,58.60
2018-05-06T18:04:31.825Z,58.50
2018-05-06T18:06:59.380Z,58.50
2018-05-06T18:09:26.910Z,58.30
2018-05-06T18:11:54.513Z,58.40
2018-05-06T18:14:22.033Z,58.30
2018-05-06T18:16:49.613Z,58.70
2018-05-06T18:19:17.113Z,59.30
2018-05-06T18:21:44.665Z,59.40
2018-05-06T18:24:12.158Z,59.90
2018-05-06T18:26:39.710Z,60.10
2018-05-06T18:29:07.219Z,60.20
2018-05-06T18:31:34.754Z,60.30
2018-05-06T18:34:02.276Z,60.60
2018-05-06T18:36:29.833Z,60.80
2018-05-06T18:38:57.356Z,60.90
2018-05-06T18:41:24.901Z,61.30
2018-05-06T18:43:52.616Z,61.40
2018-05-06T18:46:20.123Z,61.70
2018-05-06T18:48:47.645Z,62.00
2018-05-06T18:51:15.161Z,62.10
2018-05-06T18:53:42.761Z,62.40
2018-05-06T18:56:10.273Z,62.70
2018-05-06T18:58:37.815Z,62.70
2018-05-06T19:01:05.823Z,62.90
2018-05-06T19:03:33.381Z,62.90
2018-05-06T19:06:00.888Z,62.90
2018-05-06T19:08:28.603Z,62.90
2018-05-06T19:10:56.126Z,63.00
2018-05-06T19:13:23.676Z,63.10
2018-05-06T19:15:51.373Z,63.30
2018-05-06T19:18:18.911Z,63.40
2018-05-06T19:20:46.492Z,63.70
2018-05-06T19:23:14.048Z,63.80
2018-05-06T19:25:41.586Z,63.90
2018-05-06T19:28:09.114Z,64.20
2018-05-06T19:30:37.220Z,64.30
2018-05-06T19:33:04.781Z,64.30
2018-05-06T19:35:32.301Z,64.20
2018-05-06T19:37:59.859Z,64.30
2018-05-06T19:40:27.362Z,64.50
2018-05-06T19:42:54.991Z,64.70
2018-05-06T19:45:22.665Z,64.90
2018-05-06T19:47:50.223Z,65.30
2018-05-06T19:50:17.750Z,65.30
2018-05-06T19:52:45.356Z,65.40
2018-05-06T19:55:12.870Z,65.50
2018-05-06T19:57:40.418Z,65.70
2018-05-06T20:00:08.314Z,65.90
2018-05-06T20:02:35.941Z,66.00
2018-05-06T20:05:03.458Z,66.00
2018-05-06T20:07:31.175Z,66.20
2018-05-06T20:09:58.726Z,66.20
2018-05-06T20:12:26.288Z,66.20
2018-05-06T20:14:54.151Z,66.30
2018-05-06T20:17:21.723Z,66.50
2018-05-06T20:19:49.264Z,66.70
2018-05-06T20:22:16.784Z,66.90
2018-05-06T20:24:44.417Z,67.00
2018-05-06T20:27:11.943Z,67.20
2018-05-06T20:29:39.476Z,67.40
2018-05-06T20:32:06.985Z,67.40
2018-05-06T20:34:34.596Z,67.50
2018-05-06T20:37:02.190Z,67.50
2018-05-06T20:39:29.745Z,67.60
2018-05-06T20:41:57.373Z,67.80
2018-05-06T20:44:24.926Z,67.80
2018-05-06T20:46:52.474Z,68.00
2018-05-06T20:49:20.014Z,68.00
2018-05-06T20:51:47.912Z,68.00
2018-05-06T20:54:15.685Z,67.80
2018-05-06T20:56:43.353Z,67.80
2018-05-06T20:59:10.869Z,67.80
2018-05-06T21:01:38.438Z,68.00
2018-05-06T21:04:06.084Z,68.10
2018-05-06T21:50:13.790Z,70.80
2018-05-06T21:52:41.742Z,70.60
2018-05-06T21:55:09.257Z,70.60
2018-05-06T21:57:36.818Z,70.60
2018-05-06T22:00:04.333Z,70.80
2018-05-06T22:02:31.835Z,70.60
2018-05-06T22:04:59.417Z,70.50
2018-05-06T22:07:27.006Z,70.40
2018-05-06T22:09:54.573Z,70.30
2018-05-06T22:12:22.233Z,70.30
2018-05-06T22:14:49.777Z,70.30
2018-05-06T22:17:17.456Z,70.30
2018-05-06T22:19:45.018Z,70.30
2018-05-06T22:22:12.699Z,70.30
2018-05-06T22:24:40.209Z,70.30
2018-05-06T22:27:07.754Z,70.50
2018-05-06T22:29:35.256Z,70.60
2018-05-06T22:32:02.851Z,70.80
2018-05-06T22:34:30.341Z,70.80
2018-05-06T22:36:57.896Z,70.80
2018-05-06T22:39:25.413Z,70.60
2018-05-06T22:41:52.937Z,70.60
2018-05-06T22:44:20.442Z,70.80
2018-05-06T22:46:48.397Z,71.10
2018-05-06T22:49:16.104Z,71.10
2018-05-06T22:51:43.652Z,71.30
2018-05-06T22:54:11.207Z,71.40
2018-05-06T22:56:38.739Z,71.60
2018-05-06T22:59:06.651Z,71.80
2018-05-06T23:01:34.163Z,71.80
2018-05-06T23:04:01.742Z,71.80
2018-05-06T23:06:29.308Z,71.90
2018-05-06T23:08:56.844Z,71.90
2018-05-06T23:11:24.365Z,71.80
2018-05-06T23:13:51.921Z,71.70
2018-05-06T23:16:19.967Z,71.60
2018-05-06T23:18:47.493Z,71.60
2018-05-06T23:21:15.048Z,71.60
2018-05-06T23:23:42.592Z,71.60
2018-05-06T23:26:10.193Z,71.80
2018-05-06T23:28:44.630Z,71.90
2018-05-06T23:31:12.221Z,71.90
2018-05-06T23:33:39.768Z,72.10
2018-05-06T23:36:07.277Z,72.10
2018-05-06T23:38:34.793Z,72.30
2018-05-06T23:41:02.324Z,72.30
2018-05-06T23:43:30.223Z,72.40
2018-05-06T23:45:57.780Z,72.40
2018-05-06T23:48:25.441Z,72.50
2018-05-06T23:50:53.097Z,72.60
2018-05-06T23:53:20.741Z,72.70
2018-05-06T23:55:48.331Z,72.90
2018-05-06T23:58:15.875Z,73.00
